createdAt,value
2023-01-29T00:02:36.456Z,9.81
2023-01-29T00:08:27.154Z,9.86
2023-01-29T00:10:20.921Z,9.70
2023-01-29T00:11:17.672Z,9.85
2023-01-29T00:14:01.125Z,9.86
2023-01-29T00:16:43.392Z,9.83
2023-01-29T00:19:32.184Z,9.84
2023-01-29T00:22:20.518Z,9.90
2023-01-29T00:25:03.147Z,9.91
2023-01-29T00:27:45.756Z,9.77
2023-01-29T00:30:34.217Z,9.76
2023-01-29T00:33:22.419Z,9.82
2023-01-29T00:36:13.178Z,9.88
2023-01-29T00:38:59.656Z,9.91
2023-01-29T00:42:06.179Z,9.92
2023-01-29T00:45:13.210Z,9.89
2023-01-29T00:47:55.350Z,9.74
2023-01-29T00:50:45.166Z,9.64
2023-01-29T00:53:27.375Z,9.67
2023-01-29T00:56:16.146Z,9.66
2023-01-29T00:58:58.615Z,9.81
2023-01-29T01:02:05.329Z,9.79
2023-01-29T01:04:54.400Z,9.78
2023-01-29T01:07:37.172Z,9.85
2023-01-29T01:10:46.051Z,9.87
2023-01-29T01:13:28.561Z,9.86
2023-01-29T01:16:19.625Z,9.86
2023-01-29T01:19:08.172Z,9.79
2023-01-29T01:21:56.510Z,9.78
2023-01-29T01:24:39.156Z,9.78
2023-01-29T01:27:21.434Z,9.83
2023-01-29T01:30:10.231Z,9.68
2023-01-29T01:32:53.060Z,9.73
2023-01-29T01:35:42.175Z,9.73
2023-01-29T01:38:24.348Z,9.75
2023-01-29T01:41:13.119Z,9.59
2023-01-29T01:43:56.777Z,9.55
2023-01-29T01:46:49.231Z,9.62
2023-01-29T01:49:32.941Z,9.76
2023-01-29T01:52:24.261Z,9.94
2023-01-29T01:55:08.473Z,9.46
2023-01-29T01:58:01.113Z,9.37
2023-01-29T02:00:44.110Z,9.29
2023-01-29T02:03:54.276Z,9.26
2023-01-29T02:07:02.619Z,9.32
2023-01-29T02:09:51.133Z,9.38
2023-01-29T02:12:34.248Z,9.42
2023-01-29T02:15:23.166Z,9.33
2023-01-29T02:18:05.648Z,9.30
2023-01-29T02:20:58.193Z,9.34
2023-01-29T02:24:13.537Z,9.26
2023-01-29T02:27:15.488Z,9.33
2023-01-29T02:30:27.155Z,9.32
2023-01-29T02:33:39.454Z,9.40
2023-01-29T02:36:37.192Z,9.47
2023-01-29T02:39:32.472Z,9.54
2023-01-29T02:42:43.108Z,9.64
2023-01-29T02:45:32.457Z,9.77
2023-01-29T02:48:31.200Z,9.84
2023-01-29T02:51:21.470Z,9.99
2023-01-29T02:54:22.261Z,10.12
2023-01-29T02:57:15.892Z,10.22
2023-01-29T03:00:15.470Z,10.60
2023-01-29T03:03:09.142Z,10.73
2023-01-29T03:06:26.135Z,10.80
2023-01-29T03:09:48.127Z,10.92
2023-01-29T03:12:42.203Z,11.18
2023-01-29T03:15:34.667Z,11.35
2023-01-29T03:18:46.944Z,11.22
2023-01-29T03:22:08.489Z,11.19
2023-01-29T03:25:23.516Z,11.49
2023-01-29T03:28:33.135Z,11.65
2023-01-29T03:31:45.326Z,11.84
2023-01-29T03:34:40.039Z,11.92
2023-01-29T03:37:27.188Z,12.15
2023-01-29T03:40:20.420Z,12.44
2023-01-29T03:43:18.146Z,12.48
2023-01-29T03:46:20.057Z,12.76
2023-01-29T03:49:16.148Z,12.63
2023-01-29T03:52:16.128Z,12.72
2023-01-29T03:55:41.195Z,13.03
2023-01-29T03:58:39.151Z,13.50
2023-01-29T04:01:25.442Z,13.55
2023-01-29T04:04:23.218Z,13.74
2023-01-29T04:07:25.608Z,14.11
2023-01-29T04:10:25.194Z,14.55
2023-01-29T04:13:12.478Z,14.75
2023-01-29T04:16:06.253Z,15.72
2023-01-29T04:19:02.484Z,15.76
2023-01-29T04:22:00.193Z,15.82
2023-01-29T04:24:43.388Z,15.84
2023-01-29T04:27:45.489Z,16.50
2023-01-29T04:30:31.487Z,16.80
2023-01-29T04:33:31.218Z,16.37
2023-01-29T04:36:46.470Z,17.16
2023-01-29T04:39:45.135Z,16.98
2023-01-29T04:42:35.111Z,17.34
2023-01-29T04:45:42.354Z,16.88
2023-01-29T04:48:35.197Z,17.26
2023-01-29T04:51:30.403Z,18.06
2023-01-29T04:54:46.149Z,17.20
2023-01-29T04:57:53.463Z,16.94
2023-01-29T05:00:48.069Z,16.92
2023-01-29T05:03:42.078Z,16.81
2023-01-29T05:06:26.085Z,17.13
2023-01-29T05:09:17.089Z,16.76
2023-01-29T05:12:06.436Z,16.71
2023-01-29T05:14:52.092Z,16.83
2023-01-29T05:17:40.399Z,16.90
2023-01-29T05:20:23.128Z,16.96
2023-01-29T05:23:13.116Z,17.04
2023-01-29T05:25:56.411Z,17.16
2023-01-29T05:28:45.076Z,17.49
2023-01-29T05:31:27.582Z,17.89
2023-01-29T05:34:22.502Z,17.12
2023-01-29T05:37:10.437Z,17.57
2023-01-29T05:39:52.080Z,17.38
2023-01-29T05:42:34.477Z,17.71
2023-01-29T05:45:24.104Z,17.86
2023-01-29T05:48:13.401Z,18.01
2023-01-29T05:50:56.120Z,18.12
2023-01-29T05:53:45.230Z,18.07
2023-01-29T05:56:27.490Z,17.53
2023-01-29T05:59:16.147Z,17.70
2023-01-29T06:01:59.459Z,17.74
2023-01-29T06:04:48.061Z,17.91
2023-01-29T06:07:31.455Z,18.03
2023-01-29T06:10:27.152Z,18.04
2023-01-29T06:13:09.411Z,18.09
2023-01-29T06:15:58.206Z,18.18
2023-01-29T06:18:40.442Z,18.40
2023-01-29T06:21:29.107Z,18.21
2023-01-29T06:24:18.124Z,18.39
2023-01-29T06:27:00.529Z,18.20
2023-01-29T06:29:49.110Z,18.27
2023-01-29T06:32:44.113Z,18.51
2023-01-29T06:35:34.012Z,18.55
2023-01-29T06:38:23.100Z,18.44
2023-01-29T06:41:14.393Z,18.22
2023-01-29T06:44:03.094Z,18.72
2023-01-29T06:46:45.283Z,18.67
2023-01-29T06:49:34.157Z,18.38
2023-01-29T06:52:23.528Z,18.54
2023-01-29T06:55:06.095Z,18.04
2023-01-29T06:57:55.158Z,18.40
2023-01-29T07:00:37.460Z,18.32
2023-01-29T07:03:26.107Z,18.06
2023-01-29T07:06:09.220Z,17.88
2023-01-29T07:09:24.096Z,18.20
2023-01-29T07:12:26.560Z,18.51
2023-01-29T07:15:37.133Z,18.18
2023-01-29T07:18:39.999Z,18.26
2023-01-29T07:21:49.099Z,18.08
2023-01-29T07:24:51.524Z,18.29
2023-01-29T07:28:00.962Z,18.52
2023-01-29T07:31:07.471Z,18.12
2023-01-29T07:34:17.179Z,17.86
2023-01-29T07:37:25.377Z,17.98
2023-01-29T07:40:28.159Z,17.98
2023-01-29T07:43:31.215Z,18.13
2023-01-29T07:46:40.166Z,17.85
2023-01-29T07:49:42.279Z,18.15
2023-01-29T07:52:52.057Z,18.03
2023-01-29T07:55:54.554Z,17.76
2023-01-29T07:59:04.146Z,18.25
2023-01-29T08:02:13.180Z,18.08
2023-01-29T08:05:16.436Z,17.78
2023-01-29T08:08:25.094Z,17.86
2023-01-29T08:11:27.412Z,18.13
2023-01-29T08:14:36.091Z,17.99
2023-01-29T08:17:56.160Z,18.18
2023-01-29T08:21:11.754Z,18.12
2023-01-29T08:24:16.730Z,17.85
2023-01-29T08:27:34.046Z,17.62
2023-01-29T08:30:45.132Z,17.74
2023-01-29T08:33:47.311Z,17.75
2023-01-29T08:36:57.232Z,17.69
2023-01-29T08:40:00.407Z,17.90
2023-01-29T08:43:14.303Z,17.64
2023-01-29T08:46:17.486Z,17.85
2023-01-29T08:49:26.146Z,17.79
2023-01-29T08:52:35.143Z,17.89
2023-01-29T08:55:37.546Z,17.82
2023-01-29T08:58:47.139Z,17.94
2023-01-29T09:01:49.378Z,17.89
2023-01-29T09:04:58.138Z,17.92
2023-01-29T09:08:00.292Z,17.76
2023-01-29T09:11:10.054Z,17.67
2023-01-29T09:14:21.351Z,17.65
2023-01-29T09:17:24.563Z,17.74
2023-01-29T09:20:34.044Z,17.57
2023-01-29T09:23:16.464Z,17.70
2023-01-29T09:26:05.173Z,17.62
2023-01-29T09:28:54.422Z,17.45
2023-01-29T09:31:37.176Z,17.53
2023-01-29T09:34:19.310Z,17.65
2023-01-29T09:37:08.164Z,17.43
2023-01-29T09:39:58.357Z,17.24
2023-01-29T09:42:56.186Z,17.40
2023-01-29T09:45:48.388Z,17.30
2023-01-29T09:48:37.157Z,17.23
2023-01-29T09:51:48.300Z,17.21
2023-01-29T09:54:51.108Z,17.05
2023-01-29T09:58:07.203Z,17.25
2023-01-29T10:01:09.224Z,17.18
2023-01-29T10:04:00.471Z,17.02
2023-01-29T10:06:54.388Z,16.98
2023-01-29T10:10:09.486Z,16.99
2023-01-29T10:13:28.093Z,16.90
2023-01-29T10:16:37.581Z,17.05
2023-01-29T10:19:26.536Z,16.96
2023-01-29T10:22:22.084Z,16.86
2023-01-29T10:25:19.446Z,16.84
2023-01-29T10:28:09.185Z,16.71
2023-01-29T10:30:56.642Z,16.51
2023-01-29T10:34:01.495Z,16.32
2023-01-29T10:36:55.432Z,16.36
2023-01-29T10:39:39.175Z,16.29
2023-01-29T10:42:48.455Z,16.26
2023-01-29T10:46:07.146Z,16.16
2023-01-29T10:49:06.071Z,16.16
2023-01-29T10:52:04.368Z,15.96
2023-01-29T10:55:22.077Z,16.02
2023-01-29T10:58:19.393Z,15.96
2023-01-29T11:01:08.368Z,15.86
2023-01-29T11:03:51.054Z,15.74
2023-01-29T11:06:42.063Z,15.68
2023-01-29T11:09:54.493Z,15.51
2023-01-29T11:12:46.187Z,15.43
2023-01-29T11:15:39.558Z,15.37
2023-01-29T11:18:28.462Z,15.23
2023-01-29T11:21:12.959Z,15.07
2023-01-29T11:24:25.037Z,14.79
2023-01-29T11:27:15.033Z,14.55
2023-01-29T11:29:57.708Z,14.56
2023-01-29T11:32:50.081Z,14.51
2023-01-29T11:35:46.125Z,14.45
2023-01-29T11:38:30.853Z,14.23
2023-01-29T11:41:30.018Z,14.30
2023-01-29T11:44:41.432Z,14.28
2023-01-29T11:47:34.371Z,14.14
2023-01-29T11:50:25.082Z,14.23
2023-01-29T11:53:15.118Z,14.24
2023-01-29T11:55:57.696Z,14.25
2023-01-29T11:58:49.029Z,14.27
2023-01-29T12:01:46.119Z,14.32
2023-01-29T12:04:34.785Z,14.32
2023-01-29T12:07:26.093Z,14.28
2023-01-29T12:10:08.332Z,14.34
2023-01-29T12:12:57.135Z,14.34
2023-01-29T12:15:39.418Z,14.41
2023-01-29T12:18:49.411Z,14.49
2023-01-29T12:21:45.503Z,14.36
2023-01-29T12:24:58.159Z,14.43
2023-01-29T12:28:19.365Z,14.48
2023-01-29T12:31:21.231Z,14.53
2023-01-29T12:34:25.410Z,14.58
2023-01-29T12:38:05.122Z,14.54
2023-01-29T12:41:40.130Z,14.53
2023-01-29T12:44:34.243Z,14.51
2023-01-29T12:47:56.054Z,14.58
2023-01-29T12:50:43.480Z,14.57
2023-01-29T12:53:59.169Z,14.49
2023-01-29T12:56:43.489Z,14.50
2023-01-29T12:59:37.081Z,14.56
2023-01-29T13:02:36.333Z,14.50
2023-01-29T13:05:43.141Z,14.50
2023-01-29T13:08:58.419Z,14.48
2023-01-29T13:12:02.194Z,14.43
2023-01-29T13:14:56.535Z,14.45
2023-01-29T13:17:51.136Z,14.42
2023-01-29T13:20:42.402Z,14.45
2023-01-29T13:23:47.529Z,14.46
2023-01-29T13:26:31.930Z,14.44
2023-01-29T13:29:37.065Z,14.41
2023-01-29T13:32:39.378Z,14.47
2023-01-29T13:35:25.067Z,14.54
2023-01-29T13:38:29.007Z,14.48
2023-01-29T13:41:14.580Z,14.44
2023-01-29T13:44:04.130Z,14.50
2023-01-29T13:46:49.504Z,14.48
2023-01-29T13:49:40.108Z,14.50
2023-01-29T13:52:45.584Z,14.53
2023-01-29T13:55:39.070Z,14.50
2023-01-29T13:58:26.405Z,14.51
2023-01-29T14:01:15.319Z,14.59
2023-01-29T14:04:07.545Z,14.56
2023-01-29T14:06:59.194Z,14.51
2023-01-29T14:09:44.327Z,14.52
2023-01-29T14:12:33.107Z,14.55
2023-01-29T14:15:34.491Z,14.58
2023-01-29T14:18:32.157Z,14.52
2023-01-29T14:21:30.844Z,14.55
2023-01-29T14:24:30.084Z,14.50
2023-01-29T14:27:20.235Z,14.50
2023-01-29T14:30:17.726Z,14.42
2023-01-29T14:33:14.039Z,14.44
2023-01-29T14:35:58.695Z,14.51
2023-01-29T14:38:51.109Z,14.54
2023-01-29T14:41:46.332Z,14.58
2023-01-29T14:44:52.986Z,14.65
2023-01-29T14:47:42.417Z,14.70
2023-01-29T14:50:47.043Z,14.68
2023-01-29T14:53:46.514Z,14.70
2023-01-29T14:56:52.087Z,14.75
2023-01-29T14:59:54.153Z,14.76
2023-01-29T15:02:46.542Z,14.75
2023-01-29T15:05:44.115Z,14.69
2023-01-29T15:08:50.769Z,14.78
2023-01-29T15:12:04.059Z,14.80
2023-01-29T15:15:01.052Z,14.73
2023-01-29T15:17:54.808Z,14.77
2023-01-29T15:20:44.020Z,14.77
2023-01-29T15:23:38.467Z,14.79
2023-01-29T15:26:27.278Z,14.74
2023-01-29T15:29:32.559Z,14.79
2023-01-29T15:32:16.021Z,14.76
2023-01-29T15:35:06.041Z,14.63
2023-01-29T15:37:48.316Z,14.59
2023-01-29T15:40:37.316Z,14.56
2023-01-29T15:43:34.300Z,14.58
2023-01-29T15:46:34.147Z,14.54
2023-01-29T15:49:23.439Z,14.52
2023-01-29T15:52:16.055Z,14.48
2023-01-29T15:54:59.352Z,14.47
2023-01-29T15:57:51.103Z,14.50
2023-01-29T16:00:36.333Z,14.56
2023-01-29T16:03:25.072Z,14.48
2023-01-29T16:06:08.396Z,14.46
2023-01-29T16:09:02.149Z,14.46
2023-01-29T16:11:45.360Z,14.30
2023-01-29T16:14:34.979Z,14.35
2023-01-29T16:17:39.272Z,14.33
2023-01-29T16:20:59.035Z,14.30
2023-01-29T16:23:50.455Z,14.28
2023-01-29T16:26:44.194Z,14.27
2023-01-29T16:29:39.967Z,14.24
2023-01-29T16:32:29.099Z,14.25
2023-01-29T16:35:12.307Z,14.12
2023-01-29T16:38:04.087Z,14.12
2023-01-29T16:40:54.036Z,14.14
2023-01-29T16:43:50.013Z,14.15
2023-01-29T16:46:45.082Z,14.13
2023-01-29T16:49:37.322Z,14.13
2023-01-29T16:52:32.100Z,14.08
2023-01-29T16:55:20.568Z,14.03
2023-01-29T16:58:20.040Z,13.97
2023-01-29T17:01:09.399Z,14.00
2023-01-29T17:04:07.069Z,13.85
2023-01-29T17:06:53.304Z,13.90
2023-01-29T17:09:45.053Z,13.90
2023-01-29T17:12:30.349Z,13.85
2023-01-29T17:15:54.257Z,13.76
2023-01-29T17:18:37.315Z,13.79
2023-01-29T17:21:25.965Z,13.81
2023-01-29T17:24:08.340Z,13.92
2023-01-29T17:26:57.017Z,13.95
2023-01-29T17:29:40.380Z,13.85
2023-01-29T17:32:44.927Z,13.80
2023-01-29T17:35:35.295Z,13.82
2023-01-29T17:38:26.877Z,13.81
2023-01-29T17:41:26.465Z,13.73
2023-01-29T17:44:08.087Z,13.60
2023-01-29T17:46:50.572Z,13.67
2023-01-29T17:49:45.076Z,13.55
2023-01-29T17:52:27.164Z,13.55
2023-01-29T17:55:16.218Z,13.59
2023-01-29T17:58:05.157Z,13.58
2023-01-29T18:00:47.356Z,13.61
2023-01-29T18:03:36.120Z,13.58
2023-01-29T18:06:25.465Z,13.49
2023-01-29T18:09:15.077Z,13.53
2023-01-29T18:11:58.522Z,13.54
2023-01-29T18:14:46.986Z,13.48
2023-01-29T18:17:29.474Z,13.53
2023-01-29T18:20:32.984Z,13.36
2023-01-29T18:23:16.477Z,13.45
2023-01-29T18:26:05.011Z,13.34
2023-01-29T18:28:47.383Z,13.31
2023-01-29T18:31:36.090Z,13.24
2023-01-29T18:34:25.757Z,13.14
2023-01-29T18:37:10.920Z,13.16
2023-01-29T18:40:00.520Z,13.09
2023-01-29T18:42:44.059Z,13.21
2023-01-29T18:45:32.318Z,13.18
2023-01-29T18:48:15.092Z,13.15
2023-01-29T18:51:05.384Z,13.15
2023-01-29T18:53:47.978Z,13.11
2023-01-29T18:56:30.226Z,13.14
2023-01-29T18:59:19.008Z,13.09
2023-01-29T19:02:01.291Z,12.96
2023-01-29T19:04:49.951Z,12.98
2023-01-29T19:07:32.340Z,12.95
2023-01-29T19:10:23.130Z,13.05
2023-01-29T19:13:12.400Z,13.03
2023-01-29T19:15:55.949Z,13.01
2023-01-29T19:18:45.298Z,12.98
2023-01-29T19:21:28.001Z,13.01
2023-01-29T19:24:18.315Z,13.00
2023-01-29T19:27:01.099Z,12.93
2023-01-29T19:29:50.341Z,12.90
2023-01-29T19:32:38.980Z,12.78
2023-01-29T19:35:21.324Z,12.77
2023-01-29T19:38:09.954Z,12.93
2023-01-29T19:40:52.265Z,12.91
2023-01-29T19:43:41.279Z,13.00
2023-01-29T19:46:23.413Z,13.02
2023-01-29T19:49:14.028Z,13.21
2023-01-29T19:51:59.793Z,13.26
2023-01-29T19:54:54.103Z,13.21
2023-01-29T19:57:36.313Z,13.29
2023-01-29T20:00:26.142Z,13.34
2023-01-29T20:03:08.374Z,13.57
2023-01-29T20:05:57.089Z,13.40
2023-01-29T20:08:41.429Z,13.49
2023-01-29T20:11:31.983Z,13.45
2023-01-29T20:14:21.026Z,13.65
2023-01-29T20:17:03.223Z,13.68
2023-01-29T20:19:52.056Z,13.72
2023-01-29T20:22:34.458Z,13.63
2023-01-29T20:25:24.104Z,13.64
2023-01-29T20:28:08.622Z,13.58
2023-01-29T20:31:02.020Z,13.56
2023-01-29T20:33:51.557Z,13.55
2023-01-29T20:36:33.078Z,13.67
2023-01-29T20:39:22.271Z,13.73
2023-01-29T20:42:05.005Z,13.87
2023-01-29T20:44:47.160Z,13.91
2023-01-29T20:47:35.990Z,13.74
2023-01-29T20:50:20.761Z,13.75
2023-01-29T20:53:09.940Z,13.77
2023-01-29T20:55:52.213Z,13.79
2023-01-29T20:58:41.031Z,13.69
2023-01-29T21:01:23.209Z,13.73
2023-01-29T21:04:11.921Z,13.79
2023-01-29T21:07:01.346Z,13.88
2023-01-29T21:09:44.023Z,13.80
2023-01-29T21:12:32.326Z,13.69
2023-01-29T21:15:15.081Z,13.75
2023-01-29T21:18:05.533Z,13.75
2023-01-29T21:20:47.942Z,13.73
2023-01-29T21:23:37.315Z,13.79
2023-01-29T21:26:20.053Z,13.74
2023-01-29T21:29:08.926Z,13.76
2023-01-29T21:31:59.083Z,13.74
2023-01-29T21:34:53.920Z,13.76
2023-01-29T21:37:42.259Z,13.80
2023-01-29T21:40:25.043Z,13.69
2023-01-29T21:43:13.262Z,13.76
2023-01-29T21:46:03.045Z,13.84
2023-01-29T21:48:51.316Z,13.86
2023-01-29T21:51:33.948Z,13.72
2023-01-29T21:54:16.142Z,13.80
2023-01-29T21:57:05.337Z,13.79
2023-01-29T21:59:53.466Z,13.77
2023-01-29T22:02:38.009Z,13.78
2023-01-29T22:05:27.741Z,13.82
2023-01-29T22:08:11.956Z,13.83
2023-01-29T22:11:00.197Z,13.76
2023-01-29T22:13:43.028Z,13.87
2023-01-29T22:16:31.476Z,13.86
2023-01-29T22:19:13.992Z,13.80
2023-01-29T22:22:03.209Z,13.87
2023-01-29T22:24:45.158Z,13.93
2023-01-29T22:27:33.559Z,13.93
2023-01-29T22:30:16.343Z,13.92
2023-01-29T22:33:10.876Z,13.83
2023-01-29T22:36:04.147Z,14.09
2023-01-29T22:38:46.294Z,13.97
2023-01-29T22:41:34.955Z,13.98
2023-01-29T22:44:18.220Z,13.97
2023-01-29T22:47:06.956Z,14.08
2023-01-29T22:49:51.136Z,14.27
2023-01-29T22:52:45.998Z,14.14
2023-01-29T22:55:28.326Z,14.08
2023-01-29T22:58:17.946Z,14.20
2023-01-29T23:01:00.252Z,14.25
2023-01-29T23:03:49.009Z,14.40
2023-01-29T23:06:31.194Z,14.29
2023-01-29T23:09:19.967Z,14.22
2023-01-29T23:12:02.467Z,14.31
2023-01-29T23:14:50.986Z,14.32
2023-01-29T23:17:33.258Z,14.41
2023-01-29T23:20:21.960Z,14.31
2023-01-29T23:23:04.316Z,14.36
2023-01-29T23:26:10.987Z,14.28
2023-01-29T23:28:54.284Z,14.17
2023-01-29T23:31:43.049Z,14.25
2023-01-29T23:34:31.260Z,14.15
2023-01-29T23:37:13.955Z,14.35
2023-01-29T23:40:02.220Z,14.22
2023-01-29T23:42:44.029Z,14.29
2023-01-29T23:45:32.236Z,14.14
2023-01-29T23:48:14.954Z,14.12
2023-01-29T23:50:57.273Z,14.25
2023-01-29T23:53:45.902Z,14.16
2023-01-29T23:56:28.210Z,14.06
2023-01-29T23:59:16.952Z,14.20
